createdAt,value
2023-11-01T00:00:32.221Z,1.23
2023-11-01T00:03:21.713Z,1.02
2023-11-01T00:05:52.141Z,1.30
2023-11-01T00:08:21.374Z,0.90
2023-11-01T00:10:50.320Z,1.05
2023-11-01T00:13:19.691Z,0.90
2023-11-01T00:15:48.651Z,1.58
2023-11-01T00:18:18.047Z,0.80
2023-11-01T00:20:47.104Z,0.90
2023-11-01T00:23:17.818Z,1.75
2023-11-01T00:25:46.912Z,0.80
2023-11-01T00:28:16.340Z,0.80
2023-11-01T00:30:45.388Z,1.45
2023-11-01T00:33:15.175Z,1.05
2023-11-01T00:35:44.311Z,0.80
2023-11-01T00:38:13.734Z,1.55
2023-11-01T00:40:44.097Z,0.90
2023-11-01T00:43:13.489Z,0.80
2023-11-01T00:45:42.531Z,1.27
2023-11-01T00:48:11.957Z,0.98
2023-11-01T00:50:41.142Z,1.02
2023-11-01T00:53:11.505Z,1.30
2023-11-01T00:55:40.504Z,1.13
2023-11-01T00:58:11.282Z,1.23
2023-11-01T01:00:40.230Z,1.40
2023-11-01T01:03:11.950Z,1.63
2023-11-01T01:05:42.891Z,1.33
2023-11-01T01:08:12.423Z,1.20
2023-11-01T01:10:41.402Z,1.27
2023-11-01T01:13:12.150Z,1.48
2023-11-01T01:15:41.191Z,1.20
2023-11-01T01:18:10.778Z,1.20
2023-11-01T01:20:40.392Z,1.00
2023-11-01T01:23:10.747Z,1.00
2023-11-01T01:25:39.700Z,1.20
2023-11-01T01:28:09.630Z,1.20
2023-11-01T01:30:40.179Z,1.73
2023-11-01T01:33:09.508Z,1.23
2023-11-01T01:35:38.586Z,2.88
2023-11-01T01:38:08.042Z,1.30
2023-11-01T01:40:37.199Z,1.10
2023-11-01T01:43:18.076Z,1.35
2023-11-01T01:46:00.999Z,1.92
2023-11-01T01:48:30.649Z,1.40
2023-11-01T01:50:59.707Z,1.20
2023-11-01T01:53:29.529Z,1.30
2023-11-01T01:55:59.170Z,1.30
2023-11-01T01:58:29.627Z,1.27
2023-11-01T02:01:00.950Z,1.40
2023-11-01T02:03:30.767Z,1.70
2023-11-01T02:06:00.129Z,2.33
2023-11-01T02:08:29.672Z,1.27
2023-11-01T02:10:58.846Z,1.95
2023-11-01T02:13:28.194Z,1.33
2023-11-01T02:15:57.366Z,1.67
2023-11-01T02:18:28.169Z,1.10
2023-11-01T02:20:57.680Z,1.45
2023-11-01T02:23:36.401Z,1.10
2023-11-01T02:26:05.874Z,1.50
2023-11-01T02:28:35.305Z,1.30
2023-11-01T02:31:04.765Z,1.73
2023-11-01T02:33:34.020Z,1.08
2023-11-01T02:36:03.731Z,1.25
2023-11-01T02:38:34.407Z,1.30
2023-11-01T02:41:05.005Z,1.48
2023-11-01T02:43:34.454Z,1.02
2023-11-01T02:46:04.393Z,1.98
2023-11-01T02:48:33.799Z,1.50
2023-11-01T02:51:03.111Z,1.13
2023-11-01T02:53:32.392Z,1.50
2023-11-01T02:56:02.722Z,1.60
2023-11-01T02:58:32.068Z,1.27
2023-11-01T03:01:00.992Z,1.15
2023-11-01T03:03:30.497Z,2.38
2023-11-01T03:05:59.594Z,1.20
2023-11-01T03:08:29.010Z,1.15
2023-11-01T03:10:57.959Z,1.20
2023-11-01T03:13:28.580Z,0.95
2023-11-01T03:15:57.831Z,1.65
2023-11-01T03:18:27.236Z,1.17
2023-11-01T03:20:56.319Z,1.60
2023-11-01T03:23:25.685Z,1.45
2023-11-01T03:25:54.684Z,1.45
2023-11-01T03:28:23.988Z,1.48
2023-11-01T03:30:54.391Z,1.17
2023-11-01T03:33:23.894Z,1.50
2023-11-01T03:35:52.956Z,1.10
2023-11-01T03:38:22.564Z,1.30
2023-11-01T03:40:51.609Z,1.60
2023-11-01T03:43:20.847Z,1.50
2023-11-01T03:45:50.921Z,1.40
2023-11-01T03:48:21.697Z,1.08
2023-11-01T03:50:50.856Z,1.10
2023-11-01T03:53:20.270Z,1.30
2023-11-01T03:55:49.380Z,1.20
2023-11-01T03:58:18.706Z,2.13
2023-11-01T04:00:47.773Z,1.33
2023-11-01T04:03:17.158Z,1.20
2023-11-01T04:05:47.601Z,2.45
2023-11-01T04:08:17.047Z,1.10
2023-11-01T04:10:45.011Z,1.20
2023-11-01T04:13:14.433Z,1.17
2023-11-01T04:15:43.566Z,1.20
2023-11-01T04:18:13.039Z,1.02
2023-11-01T04:20:42.106Z,1.30
2023-11-01T04:23:12.700Z,1.45
2023-11-01T04:25:42.571Z,1.25
2023-11-01T04:28:11.920Z,1.50
2023-11-01T04:30:41.896Z,1.35
2023-11-01T04:33:13.315Z,1.30
2023-11-01T04:35:42.418Z,1.48
2023-11-01T04:38:14.741Z,1.27
2023-11-01T04:40:44.117Z,0.95
2023-11-01T04:43:14.516Z,1.17
2023-11-01T04:45:43.561Z,1.23
2023-11-01T04:48:12.993Z,1.00
2023-11-01T04:50:42.147Z,0.93
2023-11-01T04:53:13.310Z,1.20
2023-11-01T04:55:43.396Z,1.23
2023-11-01T04:58:13.528Z,1.63
2023-11-01T05:00:42.497Z,1.23
2023-11-01T05:03:11.886Z,1.80
2023-11-01T05:05:40.937Z,1.40
2023-11-01T05:08:10.276Z,1.00
2023-11-01T05:10:40.687Z,1.00
2023-11-01T05:13:10.371Z,1.70
2023-11-01T05:15:40.824Z,1.30
2023-11-01T05:18:10.272Z,0.95
2023-11-01T05:20:40.304Z,1.33
2023-11-01T05:23:09.924Z,1.20
2023-11-01T05:25:40.877Z,1.23
2023-11-01T05:28:10.334Z,1.20
2023-11-01T05:30:39.395Z,1.40
2023-11-01T05:33:08.798Z,1.27
2023-11-01T05:35:38.253Z,1.38
2023-11-01T05:38:08.246Z,1.35
2023-11-01T05:40:37.500Z,1.10
2023-11-01T05:43:08.182Z,1.38
2023-11-01T05:45:37.119Z,1.38
2023-11-01T05:48:10.059Z,0.90
2023-11-01T05:50:42.522Z,1.52
2023-11-01T05:53:12.552Z,1.20
2023-11-01T05:55:54.594Z,2.00
2023-11-01T05:58:32.386Z,1.33
2023-11-01T06:01:02.344Z,1.05
2023-11-01T06:03:32.473Z,1.65
2023-11-01T06:06:01.708Z,1.70
2023-11-01T06:08:31.042Z,1.10
2023-11-01T06:11:00.130Z,1.27
2023-11-01T06:13:30.920Z,1.45
2023-11-01T06:16:06.162Z,1.15
2023-11-01T06:18:35.738Z,1.17
2023-11-01T06:21:06.051Z,1.17
2023-11-01T06:23:37.860Z,1.10
2023-11-01T06:26:07.086Z,1.20
2023-11-01T06:28:37.649Z,1.00
2023-11-01T06:31:06.855Z,1.27
2023-11-01T06:33:36.229Z,1.10
2023-11-01T06:36:06.424Z,0.80
2023-11-01T06:38:37.415Z,0.90
2023-11-01T06:41:07.448Z,1.38
2023-11-01T06:43:38.100Z,1.13
2023-11-01T06:46:07.312Z,1.58
2023-11-01T06:48:36.688Z,1.33
2023-11-01T06:51:06.317Z,0.82
2023-11-01T06:53:35.629Z,1.33
2023-11-01T06:56:05.872Z,1.05
2023-11-01T06:58:35.258Z,1.20
2023-11-01T07:01:07.396Z,1.17
2023-11-01T07:03:37.060Z,1.00
2023-11-01T07:06:08.093Z,1.10
2023-11-01T07:08:37.519Z,1.15
2023-11-01T07:11:06.800Z,1.40
2023-11-01T07:13:36.201Z,0.90
2023-11-01T07:16:07.844Z,1.00
2023-11-01T07:18:39.902Z,1.10
2023-11-01T07:21:11.230Z,1.33
2023-11-01T07:26:09.636Z,1.27
2023-11-01T07:28:39.212Z,0.98
2023-11-01T07:31:09.622Z,0.82
2023-11-01T07:33:39.086Z,0.90
2023-11-01T07:36:09.341Z,1.80
2023-11-01T07:38:42.504Z,1.23
2023-11-01T07:41:13.974Z,1.45
2023-11-01T07:43:43.383Z,1.00
2023-11-01T07:46:14.806Z,1.00
2023-11-01T07:48:44.677Z,1.15
2023-11-01T07:51:13.760Z,1.08
2023-11-01T07:53:43.194Z,1.05
2023-11-01T07:56:12.755Z,1.67
2023-11-01T07:58:42.222Z,1.13
2023-11-01T08:01:12.513Z,1.10
2023-11-01T08:03:42.077Z,1.80
2023-11-01T08:06:11.457Z,1.45
2023-11-01T08:08:40.850Z,1.60
2023-11-01T08:11:10.001Z,1.13
2023-11-01T08:13:39.486Z,2.30
2023-11-01T08:16:09.376Z,1.20
2023-11-01T08:18:40.235Z,1.30
2023-11-01T08:21:09.252Z,1.10
2023-11-01T08:23:38.525Z,1.98
2023-11-01T08:26:07.562Z,1.63
2023-11-01T08:28:36.937Z,1.98
2023-11-01T08:31:06.160Z,1.50
2023-11-01T08:33:35.791Z,1.17
2023-11-01T08:36:07.083Z,1.40
2023-11-01T08:41:05.755Z,1.50
2023-11-01T08:43:35.218Z,1.40
2023-11-01T08:46:04.301Z,1.40
2023-11-01T08:48:33.621Z,1.30
2023-11-01T08:51:02.681Z,0.98
2023-11-01T08:53:33.720Z,1.45
2023-11-01T08:56:02.774Z,1.30
2023-11-01T08:58:32.442Z,1.20
2023-11-01T09:01:01.614Z,2.78
2023-11-01T09:03:31.309Z,2.28
2023-11-01T09:06:00.441Z,1.38
2023-11-01T09:08:29.888Z,1.45
2023-11-01T09:11:00.269Z,1.55
2023-11-01T09:13:29.564Z,1.43
2023-11-01T09:15:58.561Z,1.33
2023-11-01T09:18:27.919Z,1.30
2023-11-01T09:20:57.129Z,1.38
2023-11-01T09:23:26.578Z,1.23
2023-11-01T09:25:55.552Z,1.25
2023-11-01T09:28:26.177Z,1.25
2023-11-01T09:30:55.148Z,1.10
2023-11-01T09:33:25.408Z,1.00
2023-11-01T09:35:54.625Z,1.00
2023-11-01T09:38:24.191Z,1.30
2023-11-01T09:40:54.312Z,1.10
2023-11-01T09:43:27.011Z,1.73
2023-11-01T09:45:56.131Z,1.23
2023-11-01T09:48:26.237Z,1.60
2023-11-01T09:50:59.594Z,1.40
2023-11-01T09:53:29.076Z,1.10
2023-11-01T09:55:59.037Z,2.33
2023-11-01T09:58:30.714Z,1.88
2023-11-01T10:01:00.306Z,1.40
2023-11-01T10:03:29.777Z,1.60
2023-11-01T10:05:58.945Z,1.55
2023-11-01T10:08:28.469Z,2.63
2023-11-01T10:11:29.099Z,1.50
2023-11-01T10:14:01.838Z,1.10
2023-11-01T10:16:32.606Z,1.38
2023-11-01T10:19:04.492Z,1.13
2023-11-01T10:21:34.038Z,2.20
2023-11-01T10:24:04.715Z,1.48
2023-11-01T10:26:33.761Z,1.42
2023-11-01T10:29:05.732Z,1.50
2023-11-01T10:34:13.485Z,1.33
2023-11-01T10:36:53.525Z,1.40
2023-11-01T10:39:24.041Z,1.88
2023-11-01T10:41:55.951Z,1.38
2023-11-01T10:44:27.687Z,1.83
2023-11-01T10:49:27.605Z,1.10
2023-11-01T10:51:58.905Z,1.58
2023-11-01T10:56:59.498Z,1.60
2023-11-01T10:59:36.835Z,1.17
2023-11-01T11:02:18.329Z,1.38
2023-11-01T11:04:55.165Z,1.50
2023-11-01T11:07:34.907Z,1.88
2023-11-01T11:10:27.251Z,1.48
2023-11-01T11:13:27.642Z,1.92
2023-11-01T11:16:02.624Z,1.50
2023-11-01T11:18:57.298Z,1.10
2023-11-01T11:22:03.507Z,1.25
2023-11-01T11:24:56.789Z,1.05
2023-11-01T11:27:52.350Z,1.50
2023-11-01T11:31:01.933Z,2.30
2023-11-01T11:33:33.281Z,1.75
2023-11-01T11:36:17.353Z,1.50
2023-11-01T11:38:51.722Z,1.73
2023-11-01T11:41:21.885Z,1.42
2023-11-01T11:44:08.809Z,1.85
2023-11-01T11:46:41.597Z,1.80
2023-11-01T11:49:21.637Z,1.58
2023-11-01T11:51:53.244Z,1.20
2023-11-01T11:54:24.013Z,1.38
2023-11-01T11:56:57.623Z,1.30
2023-11-01T11:59:28.315Z,1.30
2023-11-01T12:02:07.988Z,1.05
2023-11-01T12:04:39.739Z,1.50
2023-11-01T12:07:16.876Z,1.15
2023-11-01T12:09:50.331Z,1.90
2023-11-01T12:12:19.713Z,1.50
2023-11-01T12:14:58.435Z,1.42
2023-11-01T12:17:29.228Z,1.75
2023-11-01T12:19:59.650Z,1.42
2023-11-01T12:22:28.741Z,1.20
2023-11-01T12:24:58.124Z,1.58
2023-11-01T12:27:33.418Z,1.27
2023-11-01T12:30:04.135Z,1.00
2023-11-01T12:32:36.147Z,1.52
2023-11-01T12:35:10.620Z,1.67
2023-11-01T12:37:43.145Z,1.20
2023-11-01T12:40:13.860Z,1.83
2023-11-01T12:42:44.945Z,1.20
2023-11-01T12:45:14.807Z,1.30
2023-11-01T12:47:47.157Z,1.30
2023-11-01T12:50:20.675Z,1.55
2023-11-01T12:52:50.597Z,1.83
2023-11-01T12:55:21.225Z,1.45
2023-11-01T12:57:51.798Z,1.25
2023-11-01T13:00:22.795Z,1.45
2023-11-01T13:02:54.319Z,1.10
2023-11-01T13:05:24.065Z,1.20
2023-11-01T13:07:58.210Z,1.20
2023-11-01T13:10:28.593Z,1.30
2023-11-01T13:12:57.625Z,1.30
2023-11-01T13:15:27.523Z,2.05
2023-11-01T13:17:58.771Z,1.20
2023-11-01T13:22:57.069Z,1.35
2023-11-01T13:25:26.277Z,1.70
2023-11-01T13:27:55.207Z,1.70
2023-11-01T13:30:24.624Z,1.20
2023-11-01T13:32:53.685Z,1.30
2023-11-01T13:35:24.555Z,1.15
2023-11-01T13:37:53.527Z,1.58
2023-11-01T13:40:22.786Z,1.42
2023-11-01T13:42:51.766Z,1.52
2023-11-01T13:45:21.189Z,1.33
2023-11-01T13:47:51.236Z,1.65
2023-11-01T13:50:20.675Z,1.50
2023-11-01T13:52:51.272Z,1.48
2023-11-01T13:55:21.387Z,1.25
2023-11-01T13:57:50.427Z,1.58
2023-11-01T14:00:20.157Z,1.58
2023-11-01T14:02:49.287Z,1.52
2023-11-01T14:05:19.416Z,1.50
2023-11-01T14:07:51.908Z,1.20
2023-11-01T14:10:21.465Z,1.73
2023-11-01T14:12:50.576Z,1.60
2023-11-01T14:15:20.552Z,1.58
2023-11-01T14:17:50.111Z,1.50
2023-11-01T14:20:20.138Z,1.52
2023-11-01T14:22:52.620Z,1.85
2023-11-01T14:25:22.265Z,2.13
2023-11-01T14:27:52.047Z,1.58
2023-11-01T14:30:21.748Z,1.70
2023-11-01T14:32:51.831Z,2.67
2023-11-01T14:35:21.497Z,1.70
2023-11-01T14:37:52.021Z,2.67
2023-11-01T14:40:21.346Z,1.83
2023-11-01T14:42:51.270Z,1.38
2023-11-01T14:45:20.643Z,1.45
2023-11-01T14:47:50.789Z,1.60
2023-11-01T14:50:20.349Z,2.75
2023-11-01T14:52:50.513Z,1.50
2023-11-01T14:55:21.732Z,1.83
2023-11-01T14:57:50.876Z,2.28
2023-11-01T15:00:20.958Z,2.22
2023-11-01T15:02:50.080Z,1.90
2023-11-01T15:05:20.414Z,1.63
2023-11-01T15:07:49.388Z,2.10
2023-11-01T15:10:20.378Z,1.67
2023-11-01T15:12:49.378Z,2.33
2023-11-01T15:15:19.021Z,2.55
2023-11-01T15:17:50.207Z,2.17
2023-11-01T15:22:50.803Z,2.00
2023-11-01T15:25:21.658Z,1.80
2023-11-01T15:27:50.799Z,2.58
2023-11-01T15:30:20.987Z,3.72
2023-11-01T15:32:50.430Z,3.83
2023-11-01T15:35:20.844Z,2.97
2023-11-01T15:37:49.830Z,2.67
2023-11-01T15:40:20.648Z,3.08
2023-11-01T15:42:51.237Z,3.15
2023-11-01T15:45:20.694Z,3.50
2023-11-01T15:47:49.738Z,3.30
2023-11-01T15:50:19.440Z,4.05
2023-11-01T15:52:48.519Z,4.07
2023-11-01T15:55:18.566Z,4.80
2023-11-01T15:57:49.990Z,4.82
2023-11-01T16:00:19.619Z,5.20
2023-11-01T16:02:49.101Z,4.35
2023-11-01T16:05:19.535Z,4.25
2023-11-01T16:07:48.564Z,6.50
2023-11-01T16:10:18.145Z,4.75
2023-11-01T16:12:48.569Z,6.13
2023-11-01T16:15:20.740Z,6.82
2023-11-01T16:17:52.071Z,7.38
2023-11-01T16:20:21.411Z,6.57
2023-11-01T16:22:52.445Z,7.05
2023-11-01T16:25:21.779Z,7.38
2023-11-01T16:27:52.153Z,5.85
2023-11-01T16:30:21.817Z,5.72
2023-11-01T16:32:57.099Z,7.60
2023-11-01T16:35:27.483Z,9.15
2023-11-01T16:37:56.465Z,7.43
2023-11-01T16:40:26.462Z,7.55
2023-11-01T16:42:56.754Z,9.85
2023-11-01T16:45:26.538Z,11.75
2023-11-01T16:47:59.084Z,13.43
2023-11-01T16:50:54.463Z,15.80
2023-11-01T16:53:23.695Z,20.73
2023-11-01T16:55:55.165Z,24.05
2023-11-01T16:58:25.552Z,30.90
2023-11-01T17:00:55.019Z,28.73
2023-11-01T17:03:24.240Z,25.70
2023-11-01T17:05:54.537Z,32.03
2023-11-01T17:08:24.269Z,34.42
2023-11-01T17:10:53.523Z,35.60
2023-11-01T17:13:24.867Z,38.60
2023-11-01T17:15:57.433Z,37.65
2023-11-01T17:18:26.806Z,40.97
2023-11-01T17:20:56.222Z,41.10
2023-11-01T17:23:25.420Z,38.58
2023-11-01T17:26:23.457Z,41.92
2023-11-01T17:28:54.546Z,45.97
2023-11-01T17:31:44.137Z,44.28
2023-11-01T17:34:14.799Z,45.67
2023-11-01T17:36:44.125Z,48.78
2023-11-01T17:39:19.004Z,46.92
2023-11-01T17:42:04.989Z,46.50
2023-11-01T17:44:38.733Z,45.40
2023-11-01T17:47:10.339Z,48.17
2023-11-01T17:49:54.359Z,45.35
2023-11-01T17:52:33.983Z,46.83
2023-11-01T17:55:08.166Z,50.28
2023-11-01T17:57:40.460Z,43.88
2023-11-01T18:00:12.088Z,48.80
2023-11-01T18:03:22.967Z,49.72
2023-11-01T18:05:54.045Z,49.20
2023-11-01T18:08:35.444Z,45.63
2023-11-01T18:11:08.656Z,45.08
2023-11-01T18:13:42.009Z,47.17
2023-11-01T18:16:13.385Z,40.28
2023-11-01T18:18:45.196Z,45.03
2023-11-01T18:21:21.537Z,47.50
2023-11-01T18:23:56.869Z,55.83
2023-11-01T18:26:27.045Z,70.70
2023-11-01T18:29:05.893Z,74.10
2023-11-01T18:31:42.059Z,75.18
2023-11-01T18:34:13.569Z,73.40
2023-11-01T18:36:47.191Z,76.60
2023-11-01T18:39:31.795Z,71.43
2023-11-01T18:42:02.515Z,66.22
2023-11-01T18:44:37.381Z,71.03
2023-11-01T18:47:12.343Z,73.55
2023-11-01T18:49:56.276Z,70.57
2023-11-01T18:52:27.180Z,64.65
2023-11-01T18:55:01.484Z,63.60
2023-11-01T18:57:36.358Z,65.22
2023-11-01T19:00:10.738Z,62.50
2023-11-01T19:03:07.242Z,65.10
2023-11-01T19:05:38.162Z,63.58
2023-11-01T19:08:07.637Z,66.82
2023-11-01T19:10:40.794Z,66.53
2023-11-01T19:13:10.320Z,64.28
2023-11-01T19:16:16.127Z,65.78
2023-11-01T19:18:51.502Z,60.58
2023-11-01T19:21:23.870Z,59.17
2023-11-01T19:24:02.117Z,60.25
2023-11-01T19:26:31.439Z,55.00
2023-11-01T19:29:02.288Z,50.80
2023-11-01T19:31:31.924Z,56.22
2023-11-01T19:34:02.826Z,52.28
2023-11-01T19:36:32.868Z,52.17
2023-11-01T19:39:07.924Z,60.05
2023-11-01T19:41:41.159Z,56.55
2023-11-01T19:44:13.638Z,60.05
2023-11-01T19:46:44.197Z,59.83
2023-11-01T19:49:15.052Z,67.85
2023-11-01T19:51:44.747Z,68.70
2023-11-01T19:54:13.944Z,71.10
2023-11-01T19:56:48.153Z,71.82
2023-11-01T19:59:20.022Z,78.63
2023-11-01T20:01:49.512Z,73.72
2023-11-01T20:04:20.302Z,77.28
2023-11-01T20:06:52.639Z,79.60
2023-11-01T20:09:23.618Z,79.13
2023-11-01T20:12:00.418Z,79.97
2023-11-01T20:14:36.428Z,78.50
2023-11-01T20:17:13.559Z,75.88
2023-11-01T20:19:44.742Z,79.22
2023-11-01T20:22:16.114Z,73.18
2023-11-01T20:24:50.753Z,77.97
2023-11-01T20:27:20.544Z,73.30
2023-11-01T20:29:49.655Z,72.05
2023-11-01T20:32:22.010Z,72.88
2023-11-01T20:37:25.509Z,65.25
2023-11-01T20:39:54.987Z,70.30
2023-11-01T20:42:27.337Z,65.22
2023-11-01T20:44:58.918Z,67.85
2023-11-01T20:47:29.475Z,65.10
2023-11-01T20:50:00.139Z,67.93
2023-11-01T20:52:29.693Z,67.15
2023-11-01T20:55:02.618Z,62.30
2023-11-01T20:57:35.233Z,61.72
2023-11-01T21:00:05.285Z,63.13
2023-11-01T21:02:36.261Z,61.53
2023-11-01T21:05:07.397Z,63.35
2023-11-01T21:10:08.244Z,53.95
2023-11-01T21:12:39.419Z,60.60
2023-11-01T21:15:11.524Z,48.05
2023-11-01T21:17:41.503Z,46.78
2023-11-01T21:20:12.770Z,45.35
2023-11-01T21:22:42.533Z,45.58
2023-11-01T21:25:12.493Z,43.55
2023-11-01T21:27:41.815Z,44.17
2023-11-01T21:30:11.950Z,49.63
2023-11-01T21:32:41.427Z,45.80
2023-11-01T21:35:11.961Z,42.80
2023-11-01T21:37:41.792Z,47.45
2023-11-01T21:40:12.481Z,44.50
2023-11-01T21:42:41.982Z,40.47
2023-11-01T21:45:16.486Z,42.40
2023-11-01T21:47:45.981Z,39.88
2023-11-01T21:50:48.841Z,40.45
2023-11-01T21:53:18.164Z,44.95
2023-11-01T21:55:54.665Z,42.80
2023-11-01T21:58:26.598Z,44.28
2023-11-01T22:00:59.668Z,43.55
2023-11-01T22:03:40.641Z,43.53
2023-11-01T22:06:13.693Z,40.45
2023-11-01T22:08:59.140Z,40.35
2023-11-01T22:11:30.592Z,42.47
2023-11-01T22:14:01.007Z,38.55
2023-11-01T22:16:31.747Z,38.10
2023-11-01T22:19:03.293Z,36.40
2023-11-01T22:21:38.580Z,32.88
2023-11-01T22:24:09.383Z,35.05
2023-11-01T22:26:38.453Z,36.67
2023-11-01T22:29:09.420Z,38.92
2023-11-01T22:31:52.135Z,40.03
2023-11-01T22:34:23.648Z,37.13
2023-11-01T22:36:54.853Z,35.90
2023-11-01T22:39:41.313Z,35.70
2023-11-01T22:42:12.816Z,36.85
2023-11-01T22:44:45.377Z,37.85
2023-11-01T22:47:15.208Z,35.00
2023-11-01T22:49:44.951Z,35.20
2023-11-01T22:52:15.286Z,36.38
2023-11-01T22:54:44.636Z,34.27
2023-11-01T22:57:13.746Z,34.55
2023-11-01T22:59:43.333Z,34.60
2023-11-01T23:02:14.739Z,38.97
2023-11-01T23:04:45.694Z,37.22
2023-11-01T23:07:16.236Z,34.22
2023-11-01T23:09:45.537Z,39.25
2023-11-01T23:12:14.576Z,43.58
2023-11-01T23:14:43.923Z,42.40
2023-11-01T23:17:13.004Z,41.88
2023-11-01T23:19:42.577Z,39.58
2023-11-01T23:22:12.188Z,39.60
2023-11-01T23:24:42.896Z,37.92
2023-11-01T23:27:12.757Z,35.53
2023-11-01T23:29:43.023Z,35.67
2023-11-01T23:32:13.611Z,36.22
2023-11-01T23:34:46.252Z,33.83
2023-11-01T23:37:23.497Z,34.72
2023-11-01T23:39:54.401Z,34.50
2023-11-01T23:42:23.371Z,32.97
2023-11-01T23:44:54.396Z,33.97
2023-11-01T23:47:44.696Z,33.30
2023-11-01T23:50:32.055Z,33.83
2023-11-01T23:53:02.503Z,34.20
2023-11-01T23:55:33.543Z,31.52
2023-11-01T23:58:02.899Z,29.13
